Time;durP1;ratioP1;P1;durP2;ratioP2;P2;SDS_P1;SDS_P2;PMS_P1;PMS_P2;Temp;Humidity;BMP_temperature;BMP_pressure;BME280_temperature;BME280_humidity;BME280_pressure;Samples;Min_cycle;Max_cycle;Signal;HPM_P1;HPM_P2
2023/09/10 00:02:07;;;;;;;9.77;8.77;;;;;;;;;;4923735;29;20652;-81
2023/09/10 00:04:34;;;;;;;9.77;8.83;;;;;;;;;;4919880;29;20198;-81
2023/09/10 00:07:00;;;;;;;10.50;9.40;;;;;;;;;;4925928;29;20248;-81
2023/09/10 00:09:26;;;;;;;10.10;9.20;;;;;;;;;;4901621;29;20194;-81
2023/09/10 00:11:52;;;;;;;9.47;8.57;;;;;;;;;;4901766;29;20201;-81
2023/09/10 00:14:18;;;;;;;10.87;9.77;;;;;;;;;;4917392;29;20194;-80
2023/09/10 00:16:44;;;;;;;13.30;10.00;;;;;;;;;;4898879;29;20278;-81
2023/09/10 00:19:15;;;;;;;11.20;10.00;;;;;;;;;;4921122;29;20187;-80
2023/09/10 00:21:41;;;;;;;10.83;9.73;;;;;;;;;;4914950;29;20197;-80
2023/09/10 00:24:08;;;;;;;10.53;9.27;;;;;;;;;;4915555;29;20294;-81
2023/09/10 00:26:35;;;;;;;10.40;9.17;;;;;;;;;;4920943;29;20205;-80
2023/09/10 00:29:01;;;;;;;9.97;9.00;;;;;;;;;;4915894;29;20626;-80
2023/09/10 00:31:28;;;;;;;10.87;9.77;;;;;;;;;;4898687;29;20198;-81
2023/09/10 00:33:54;;;;;;;10.50;9.40;;;;;;;;;;4919808;29;20198;-81
2023/09/10 00:36:20;;;;;;;10.17;9.10;;;;;;;;;;4911942;29;20309;-81
2023/09/10 00:38:46;;;;;;;10.70;9.70;;;;;;;;;;4919348;29;20654;-81
2023/09/10 00:41:12;;;;;;;10.63;9.63;;;;;;;;;;4922612;29;20188;-81
2023/09/10 00:43:38;;;;;;;11.57;10.37;;;;;;;;;;4897270;29;20198;-79
2023/09/10 00:46:04;;;;;;;11.40;10.30;;;;;;;;;;4913611;29;20207;-80
2023/09/10 00:48:32;;;;;;;12.43;11.13;;;;;;;;;;4914483;29;20214;-81
2023/09/10 00:50:58;;;;;;;11.47;10.43;;;;;;;;;;4915455;29;20195;-80
2023/09/10 00:53:25;;;;;;;12.80;11.47;;;;;;;;;;4899575;29;20194;-81
2023/09/10 00:55:52;;;;;;;12.13;10.93;;;;;;;;;;4911591;29;20266;-81
2023/09/10 00:58:18;;;;;;;11.90;10.70;;;;;;;;;;4918822;29;20190;-79
2023/09/10 01:00:45;;;;;;;12.23;10.50;;;;;;;;;;4914910;29;20193;-80
2023/09/10 01:03:11;;;;;;;10.80;9.80;;;;;;;;;;4912695;29;20195;-81
2023/09/10 01:05:37;;;;;;;11.57;10.37;;;;;;;;;;4921992;29;20210;-80
2023/09/10 01:08:03;;;;;;;11.27;10.07;;;;;;;;;;4913574;29;20620;-80
2023/09/10 01:10:33;;;;;;;10.73;9.63;;;;;;;;;;4913412;29;20220;-81
2023/09/10 01:13:09;;;;;;;10.30;9.37;;;;;;;;;;4914004;29;20217;-81
2023/09/10 01:15:41;;;;;;;10.60;9.60;;;;;;;;;;4914911;29;20210;-81
2023/09/10 01:18:07;;;;;;;10.13;9.17;;;;;;;;;;4907767;29;20214;-80
2023/09/10 01:20:42;;;;;;;9.50;8.60;;;;;;;;;;4914441;29;20689;-79
2023/09/10 01:23:12;;;;;;;10.10;9.20;;;;;;;;;;4913623;29;20209;-79
2023/09/10 01:25:38;;;;;;;11.10;10.10;;;;;;;;;;4902278;29;20222;-81
2023/09/10 01:28:05;;;;;;;11.17;10.07;;;;;;;;;;4916473;29;20190;-80
2023/09/10 01:30:32;;;;;;;12.80;11.07;;;;;;;;;;4883193;29;20218;-80
2023/09/10 01:33:20;;;;;;;11.43;10.33;;;;;;;;;;4897974;29;20901;-81
2023/09/10 01:36:07;;;;;;;10.77;9.77;;;;;;;;;;4897202;29;20230;-80
2023/09/10 01:38:41;;;;;;;11.40;10.00;;;;;;;;;;4920071;29;20209;-80
2023/09/10 01:41:11;;;;;;;9.73;8.83;;;;;;;;;;4903046;29;20290;-81
2023/09/10 01:43:37;;;;;;;11.00;9.30;;;;;;;;;;4915137;29;20672;-80
2023/09/10 01:46:04;;;;;;;10.97;9.87;;;;;;;;;;4897764;29;20217;-81
2023/09/10 01:48:30;;;;;;;10.57;9.47;;;;;;;;;;4912072;29;20225;-80
2023/09/10 01:50:56;;;;;;;11.90;10.23;;;;;;;;;;4912071;29;20202;-80
2023/09/10 01:53:22;;;;;;;10.17;9.13;;;;;;;;;;4913110;29;20194;-81
2023/09/10 01:55:49;;;;;;;10.73;9.67;;;;;;;;;;4912932;29;20402;-81
2023/09/10 01:58:15;;;;;;;11.33;10.20;;;;;;;;;;4911649;29;20555;-81
2023/09/10 02:00:41;;;;;;;10.93;9.87;;;;;;;;;;4910601;29;20710;-79
2023/09/10 02:03:08;;;;;;;12.23;10.30;;;;;;;;;;4920178;29;20214;-80
2023/09/10 02:05:34;;;;;;;11.03;10.00;;;;;;;;;;4922860;29;20249;-80
2023/09/10 02:08:00;;;;;;;10.60;9.50;;;;;;;;;;4913233;29;20303;-80
2023/09/10 02:10:26;;;;;;;10.67;9.53;;;;;;;;;;4899368;29;20186;-80
2023/09/10 02:12:52;;;;;;;10.57;9.53;;;;;;;;;;4899836;29;20201;-80
2023/09/10 02:15:19;;;;;;;10.80;9.70;;;;;;;;;;4894664;29;20627;-79
2023/09/10 02:17:45;;;;;;;10.10;9.17;;;;;;;;;;4914394;29;20233;-80
2023/09/10 02:20:12;;;;;;;10.23;9.20;;;;;;;;;;4913779;29;20199;-80
2023/09/10 02:22:38;;;;;;;10.63;9.63;;;;;;;;;;4913339;29;20245;-81
2023/09/10 02:25:05;;;;;;;11.07;9.90;;;;;;;;;;4917196;29;20285;-81
2023/09/10 02:27:31;;;;;;;11.17;10.07;;;;;;;;;;4913892;29;20225;-80
2023/09/10 02:29:58;;;;;;;11.70;10.17;;;;;;;;;;4911672;29;20210;-80
2023/09/10 02:32:25;;;;;;;11.30;10.10;;;;;;;;;;4916865;29;20669;-79
2023/09/10 02:34:51;;;;;;;11.67;10.20;;;;;;;;;;4917284;29;20191;-80
2023/09/10 02:37:18;;;;;;;11.13;10.00;;;;;;;;;;4912301;29;20218;-80
2023/09/10 02:39:44;;;;;;;11.17;9.97;;;;;;;;;;4896876;29;20203;-80
2023/09/10 02:42:10;;;;;;;10.83;9.70;;;;;;;;;;4914027;29;20187;-80
2023/09/10 02:44:36;;;;;;;11.10;10.10;;;;;;;;;;4917768;29;20196;-80
2023/09/10 02:47:02;;;;;;;13.03;11.60;;;;;;;;;;4896296;29;20269;-80
2023/09/10 02:49:29;;;;;;;16.43;14.93;;;;;;;;;;4900653;29;20646;-81
2023/09/10 02:51:55;;;;;;;14.80;13.30;;;;;;;;;;4925232;29;20254;-81
2023/09/10 02:54:21;;;;;;;13.73;12.43;;;;;;;;;;4900253;29;20198;-81
2023/09/10 02:56:47;;;;;;;15.00;13.60;;;;;;;;;;4916381;29;20210;-79
2023/09/10 02:59:20;;;;;;;13.43;12.10;;;;;;;;;;4884562;29;20627;-80
2023/09/10 03:01:46;;;;;;;14.33;12.90;;;;;;;;;;4895005;29;20890;-79
2023/09/10 03:04:14;;;;;;;12.37;11.17;;;;;;;;;;4908311;29;20590;-80
2023/09/10 03:06:42;;;;;;;13.83;12.43;;;;;;;;;;4914817;29;20213;-80
2023/09/10 03:09:09;;;;;;;13.30;12.03;;;;;;;;;;4915223;29;20194;-80
2023/09/10 03:11:37;;;;;;;13.57;12.27;;;;;;;;;;4914966;29;20342;-80
2023/09/10 03:14:04;;;;;;;12.93;11.60;;;;;;;;;;4914613;29;20194;-80
2023/09/10 03:16:30;;;;;;;13.83;12.43;;;;;;;;;;4915147;29;20218;-80
2023/09/10 03:18:57;;;;;;;13.30;10.83;;;;;;;;;;4907571;29;20265;-80
2023/09/10 03:21:23;;;;;;;12.03;10.93;;;;;;;;;;4905099;29;20266;-80
2023/09/10 03:23:49;;;;;;;12.50;11.30;;;;;;;;;;4909837;29;20192;-81
2023/09/10 03:26:15;;;;;;;12.80;11.50;;;;;;;;;;4913931;29;20221;-80
2023/09/10 03:28:42;;;;;;;12.97;11.67;;;;;;;;;;4920313;29;20205;-80
2023/09/10 03:31:08;;;;;;;13.67;11.70;;;;;;;;;;4912080;29;20190;-80
2023/09/10 03:33:34;;;;;;;12.73;11.47;;;;;;;;;;4919521;29;20200;-79
2023/09/10 03:36:01;;;;;;;12.87;11.67;;;;;;;;;;4917907;29;20214;-80
2023/09/10 03:38:27;;;;;;;12.50;11.30;;;;;;;;;;4918419;29;20656;-79
2023/09/10 03:40:53;;;;;;;12.30;11.20;;;;;;;;;;4912625;29;20191;-79
2023/09/10 03:43:19;;;;;;;13.50;12.20;;;;;;;;;;4913939;29;20273;-79
2023/09/10 03:45:46;;;;;;;13.57;12.23;;;;;;;;;;4911282;29;20203;-79
2023/09/10 03:48:15;;;;;;;13.23;11.83;;;;;;;;;;4916973;29;20187;-80
2023/09/10 03:50:41;;;;;;;13.00;11.63;;;;;;;;;;4917352;29;20285;-80
2023/09/10 03:53:07;;;;;;;13.57;12.27;;;;;;;;;;4915540;29;20186;-80
2023/09/10 03:55:34;;;;;;;13.13;11.73;;;;;;;;;;4914697;29;20210;-80
2023/09/10 03:58:00;;;;;;;12.77;11.57;;;;;;;;;;4915116;29;20225;-81
2023/09/10 04:00:26;;;;;;;12.57;11.37;;;;;;;;;;4910170;29;20191;-80
2023/09/10 04:02:52;;;;;;;13.03;11.83;;;;;;;;;;4899620;29;20195;-80
2023/09/10 04:05:18;;;;;;;11.87;10.77;;;;;;;;;;4909197;29;20212;-79
2023/09/10 04:07:45;;;;;;;12.40;11.20;;;;;;;;;;4916310;29;20199;-80
2023/09/10 04:10:11;;;;;;;12.27;11.17;;;;;;;;;;4916267;29;20231;-80
2023/09/10 04:12:37;;;;;;;12.07;10.87;;;;;;;;;;4913387;29;20246;-80
2023/09/10 04:15:04;;;;;;;12.93;11.73;;;;;;;;;;4913981;29;20206;-80
2023/09/10 04:17:30;;;;;;;12.70;11.50;;;;;;;;;;4899124;29;20214;-80
2023/09/10 04:19:57;;;;;;;12.07;10.97;;;;;;;;;;4899330;29;20202;-80
2023/09/10 04:22:24;;;;;;;12.43;11.13;;;;;;;;;;4898575;29;20555;-81
2023/09/10 04:24:50;;;;;;;13.60;12.27;;;;;;;;;;4910605;29;20179;-80
2023/09/10 04:27:16;;;;;;;13.27;11.97;;;;;;;;;;4913779;29;20183;-80
2023/09/10 04:29:43;;;;;;;13.53;12.13;;;;;;;;;;4912632;29;20194;-80
2023/09/10 04:32:09;;;;;;;12.70;11.53;;;;;;;;;;4911015;29;20191;-80
2023/09/10 04:34:35;;;;;;;12.30;11.10;;;;;;;;;;4894796;29;20199;-80
2023/09/10 04:37:03;;;;;;;13.13;11.80;;;;;;;;;;4910398;29;20269;-80
2023/09/10 04:39:29;;;;;;;12.63;11.33;;;;;;;;;;4910122;29;20187;-79
2023/09/10 04:41:55;;;;;;;11.80;10.70;;;;;;;;;;4914970;29;20197;-80
2023/09/10 04:44:23;;;;;;;12.37;11.27;;;;;;;;;;4897852;29;20191;-80
2023/09/10 04:46:49;;;;;;;12.10;10.97;;;;;;;;;;4916589;29;20210;-80
2023/09/10 04:49:15;;;;;;;11.93;10.73;;;;;;;;;;4915343;29;20617;-80
2023/09/10 04:51:41;;;;;;;14.20;12.80;;;;;;;;;;4913803;29;20707;-80
2023/09/10 04:54:07;;;;;;;12.73;11.50;;;;;;;;;;4909132;29;20706;-79
2023/09/10 04:56:33;;;;;;;13.50;11.80;;;;;;;;;;4913539;29;20336;-79
2023/09/10 04:58:59;;;;;;;13.13;11.73;;;;;;;;;;4908000;29;20194;-80
2023/09/10 05:01:26;;;;;;;13.33;12.10;;;;;;;;;;4896112;29;20196;-80
2023/09/10 05:03:53;;;;;;;12.80;11.50;;;;;;;;;;4915273;29;20269;-79
2023/09/10 05:06:22;;;;;;;12.67;11.47;;;;;;;;;;4911908;29;20210;-80
2023/09/10 05:08:48;;;;;;;13.07;11.33;;;;;;;;;;4901687;29;20278;-80
2023/09/10 05:11:15;;;;;;;12.93;11.63;;;;;;;;;;4913816;29;20197;-80
2023/09/10 05:13:41;;;;;;;12.43;11.33;;;;;;;;;;4916057;29;20253;-80
2023/09/10 05:16:08;;;;;;;12.03;10.93;;;;;;;;;;4901943;29;20643;-80
2023/09/10 05:18:34;;;;;;;12.67;11.47;;;;;;;;;;4890963;29;20183;-80
2023/09/10 05:21:00;;;;;;;12.60;11.30;;;;;;;;;;4914830;29;20205;-80
2023/09/10 05:23:27;;;;;;;13.20;10.47;;;;;;;;;;4895432;29;20187;-80
2023/09/10 05:25:53;;;;;;;11.23;10.23;;;;;;;;;;4906018;29;20246;-81
2023/09/10 05:28:19;;;;;;;12.50;11.20;;;;;;;;;;4896482;29;20186;-80
2023/09/10 05:30:46;;;;;;;11.30;10.20;;;;;;;;;;4892925;29;20194;-80
2023/09/10 05:33:12;;;;;;;11.90;10.67;;;;;;;;;;4911700;29;20566;-79
2023/09/10 05:35:38;;;;;;;12.67;11.47;;;;;;;;;;4910857;29;20207;-79
2023/09/10 05:38:05;;;;;;;11.30;10.20;;;;;;;;;;4912322;29;20957;-80
2023/09/10 05:40:37;;;;;;;10.93;10.03;;;;;;;;;;4912790;29;20202;-80
2023/09/10 05:43:04;;;;;;;11.37;10.27;;;;;;;;;;4913115;29;20219;-80
2023/09/10 05:45:32;;;;;;;11.03;9.97;;;;;;;;;;4896336;29;20242;-80
2023/09/10 05:47:59;;;;;;;10.77;9.77;;;;;;;;;;4913020;29;20195;-80
2023/09/10 05:50:25;;;;;;;11.30;10.30;;;;;;;;;;4905059;29;20193;-80
2023/09/10 05:52:55;;;;;;;11.20;10.10;;;;;;;;;;4897993;29;20488;-80
2023/09/10 05:55:23;;;;;;;11.70;10.60;;;;;;;;;;4913777;29;20210;-80
2023/09/10 05:57:51;;;;;;;11.07;10.03;;;;;;;;;;4903065;29;20210;-80
2023/09/10 06:00:18;;;;;;;10.57;9.57;;;;;;;;;;4913416;29;20217;-80
2023/09/10 06:02:45;;;;;;;11.00;10.00;;;;;;;;;;4895139;29;20191;-80
2023/09/10 06:05:13;;;;;;;14.97;10.40;;;;;;;;;;4905457;29;20281;-79
2023/09/10 06:07:39;;;;;;;11.57;10.57;;;;;;;;;;4908818;29;20183;-80
2023/09/10 06:10:08;;;;;;;10.93;9.80;;;;;;;;;;4912881;29;20213;-80
2023/09/10 06:12:37;;;;;;;12.10;10.47;;;;;;;;;;4904851;29;20195;-79
2023/09/10 06:15:04;;;;;;;12.60;9.80;;;;;;;;;;4926103;29;20229;-81
2023/09/10 06:17:30;;;;;;;11.10;10.10;;;;;;;;;;4908911;29;20297;-80
2023/09/10 06:19:56;;;;;;;10.43;9.53;;;;;;;;;;4910465;29;20206;-80
2023/09/10 06:22:22;;;;;;;9.97;9.07;;;;;;;;;;4911440;29;20644;-79
2023/09/10 06:24:48;;;;;;;9.80;8.80;;;;;;;;;;4905270;29;20273;-80
2023/09/10 06:27:15;;;;;;;10.20;9.20;;;;;;;;;;4911952;29;20618;-80
2023/09/10 06:29:41;;;;;;;10.40;9.40;;;;;;;;;;4909994;29;20190;-80
2023/09/10 06:32:07;;;;;;;10.83;9.80;;;;;;;;;;4912084;29;20801;-80
2023/09/10 06:34:33;;;;;;;10.70;9.70;;;;;;;;;;4913271;29;20202;-79
2023/09/10 06:37:00;;;;;;;12.43;9.63;;;;;;;;;;4911550;29;20737;-79
2023/09/10 06:39:27;;;;;;;10.03;9.13;;;;;;;;;;4911692;29;20273;-80
2023/09/10 06:41:56;;;;;;;11.67;10.63;;;;;;;;;;4911917;29;20230;-81
2023/09/10 06:44:25;;;;;;;10.87;9.87;;;;;;;;;;4905097;29;20190;-80
2023/09/10 06:46:51;;;;;;;13.57;11.93;;;;;;;;;;4912198;29;20241;-80
2023/09/10 06:49:17;;;;;;;11.50;10.40;;;;;;;;;;4912096;29;20245;-79
2023/09/10 06:51:43;;;;;;;12.00;10.90;;;;;;;;;;4913826;29;20286;-79
2023/09/10 06:54:10;;;;;;;12.77;11.50;;;;;;;;;;4912614;29;20197;-79
2023/09/10 06:56:36;;;;;;;12.10;11.00;;;;;;;;;;4906581;29;20219;-80
2023/09/10 06:59:02;;;;;;;14.73;12.40;;;;;;;;;;4912820;29;20187;-80
2023/09/10 07:01:28;;;;;;;13.00;11.80;;;;;;;;;;4914476;29;20179;-79
2023/09/10 07:03:57;;;;;;;13.27;11.97;;;;;;;;;;4900549;29;20190;-80
2023/09/10 07:06:23;;;;;;;12.63;11.40;;;;;;;;;;4899175;29;20297;-79
2023/09/10 07:08:50;;;;;;;13.53;12.33;;;;;;;;;;4908506;29;20286;-80
2023/09/10 07:11:16;;;;;;;12.73;11.63;;;;;;;;;;4916558;29;20186;-80
2023/09/10 07:13:42;;;;;;;13.50;12.20;;;;;;;;;;4916236;29;20195;-80
2023/09/10 07:16:08;;;;;;;12.27;11.17;;;;;;;;;;4907302;29;20225;-79
2023/09/10 07:18:34;;;;;;;12.17;11.07;;;;;;;;;;4914349;29;20194;-79
2023/09/10 07:21:01;;;;;;;13.27;12.07;;;;;;;;;;4914208;29;20300;-80
2023/09/10 07:23:27;;;;;;;12.00;10.90;;;;;;;;;;4906852;29;20190;-80
2023/09/10 07:25:53;;;;;;;13.00;11.80;;;;;;;;;;4910779;29;20204;-79
2023/09/10 07:28:20;;;;;;;13.20;12.00;;;;;;;;;;4913885;29;20193;-80
2023/09/10 07:30:46;;;;;;;14.03;12.10;;;;;;;;;;4912713;29;20191;-81
2023/09/10 07:33:12;;;;;;;13.63;12.30;;;;;;;;;;4912550;29;20202;-80
2023/09/10 07:35:38;;;;;;;14.60;13.30;;;;;;;;;;4894380;29;20294;-80
2023/09/10 07:38:04;;;;;;;13.67;12.27;;;;;;;;;;4910431;29;20726;-79
2023/09/10 07:40:30;;;;;;;13.50;12.20;;;;;;;;;;4915580;29;20183;-79
2023/09/10 07:42:59;;;;;;;13.07;11.80;;;;;;;;;;4931193;29;20282;-80
2023/09/10 07:45:25;;;;;;;12.07;10.77;;;;;;;;;;4914355;29;20210;-79
2023/09/10 07:47:51;;;;;;;12.17;11.03;;;;;;;;;;4912377;29;20805;-80
2023/09/10 07:50:17;;;;;;;12.27;11.17;;;;;;;;;;4917217;29;20187;-80
2023/09/10 07:52:43;;;;;;;13.77;12.47;;;;;;;;;;4916566;29;20195;-78
2023/09/10 07:55:10;;;;;;;14.57;12.93;;;;;;;;;;4920372;29;20202;-77
2023/09/10 07:57:36;;;;;;;13.83;12.43;;;;;;;;;;4914782;29;20206;-79
2023/09/10 08:00:03;;;;;;;13.63;12.23;;;;;;;;;;4915026;29;20676;-77
2023/09/10 08:02:37;;;;;;;13.70;12.40;;;;;;;;;;4915806;29;20182;-78
2023/09/10 08:05:05;;;;;;;12.63;11.40;;;;;;;;;;4915575;29;20214;-79
2023/09/10 08:07:32;;;;;;;14.30;12.80;;;;;;;;;;4914278;29;20206;-78
2023/09/10 08:09:58;;;;;;;14.37;13.10;;;;;;;;;;4908509;29;20731;-78
2023/09/10 08:12:24;;;;;;;13.67;12.37;;;;;;;;;;4910891;29;20190;-78
2023/09/10 08:14:50;;;;;;;13.33;11.93;;;;;;;;;;4917575;29;20249;-76
2023/09/10 08:17:16;;;;;;;13.60;12.20;;;;;;;;;;4920701;29;20297;-76
2023/09/10 08:19:42;;;;;;;13.00;11.80;;;;;;;;;;4906152;29;20725;-76
2023/09/10 08:22:09;;;;;;;12.73;11.53;;;;;;;;;;4909805;29;20210;-76
2023/09/10 08:24:35;;;;;;;14.57;13.17;;;;;;;;;;4918282;29;20190;-76
2023/09/10 08:27:03;;;;;;;14.27;12.83;;;;;;;;;;4915593;29;20682;-77
2023/09/10 08:29:29;;;;;;;13.70;12.40;;;;;;;;;;4912630;29;20194;-76
2023/09/10 08:31:56;;;;;;;13.83;12.43;;;;;;;;;;4915670;29;20190;-76
2023/09/10 08:34:22;;;;;;;13.63;12.43;;;;;;;;;;4914000;29;20404;-76
2023/09/10 08:36:48;;;;;;;12.73;10.60;;;;;;;;;;4915600;29;20281;-76
2023/09/10 08:39:15;;;;;;;12.13;11.00;;;;;;;;;;4916393;29;20266;-76
2023/09/10 08:41:48;;;;;;;11.60;10.60;;;;;;;;;;4908128;29;20410;-76
2023/09/10 08:44:19;;;;;;;12.13;10.73;;;;;;;;;;4923105;29;20198;-76
2023/09/10 08:46:48;;;;;;;11.20;10.10;;;;;;;;;;4911246;29;20708;-76
2023/09/10 08:49:15;;;;;;;10.37;9.43;;;;;;;;;;4913426;29;20190;-76
2023/09/10 08:51:41;;;;;;;10.43;9.40;;;;;;;;;;4907771;29;20248;-75
2023/09/10 08:54:09;;;;;;;11.57;10.43;;;;;;;;;;4918785;29;20270;-78
2023/09/10 08:56:35;;;;;;;9.90;8.97;;;;;;;;;;4913106;29;20218;-78
2023/09/10 08:59:05;;;;;;;12.63;10.47;;;;;;;;;;4915046;29;20399;-78
2023/09/10 09:01:31;;;;;;;10.87;9.87;;;;;;;;;;4915563;29;20718;-78
2023/09/10 09:03:58;;;;;;;11.27;10.23;;;;;;;;;;4916389;29;20217;-78
2023/09/10 09:06:27;;;;;;;10.93;9.83;;;;;;;;;;4914883;29;20195;-78
2023/09/10 09:08:56;;;;;;;10.37;9.37;;;;;;;;;;4915301;29;20269;-78
2023/09/10 09:11:23;;;;;;;9.87;8.87;;;;;;;;;;4917212;29;20643;-78
2023/09/10 09:13:52;;;;;;;11.10;10.07;;;;;;;;;;4916137;29;20209;-78
2023/09/10 09:16:20;;;;;;;10.43;9.50;;;;;;;;;;4913515;29;20210;-78
2023/09/10 09:18:47;;;;;;;11.00;9.87;;;;;;;;;;4914255;29;20197;-77
2023/09/10 09:21:20;;;;;;;11.10;10.07;;;;;;;;;;4914884;29;20194;-78
2023/09/10 09:23:49;;;;;;;10.83;9.83;;;;;;;;;;4913670;29;20179;-78
2023/09/10 09:26:15;;;;;;;10.20;9.30;;;;;;;;;;4916957;29;20215;-78
2023/09/10 09:28:41;;;;;;;12.00;9.83;;;;;;;;;;4893086;29;20670;-78
2023/09/10 09:31:09;;;;;;;11.27;10.27;;;;;;;;;;4912631;29;20206;-78
2023/09/10 09:33:36;;;;;;;9.73;8.77;;;;;;;;;;4911859;29;20190;-78
2023/09/10 09:36:11;;;;;;;9.13;8.33;;;;;;;;;;4913699;29;20207;-78
2023/09/10 09:38:42;;;;;;;9.80;8.90;;;;;;;;;;4912178;29;20190;-78
2023/09/10 09:41:09;;;;;;;9.77;8.80;;;;;;;;;;4912605;29;20184;-75
2023/09/10 09:43:35;;;;;;;8.93;7.83;;;;;;;;;;4914613;29;20250;-77
2023/09/10 09:46:01;;;;;;;8.67;7.87;;;;;;;;;;4915146;29;20231;-81
2023/09/10 09:48:28;;;;;;;7.87;7.17;;;;;;;;;;4913106;29;20273;-78
2023/09/10 09:50:55;;;;;;;8.80;8.00;;;;;;;;;;4915271;29;20182;-77
2023/09/10 09:53:28;;;;;;;8.77;7.90;;;;;;;;;;4914563;29;20192;-76
2023/09/10 09:56:03;;;;;;;8.77;7.97;;;;;;;;;;4914532;29;20747;-79
2023/09/10 09:58:29;;;;;;;9.13;7.70;;;;;;;;;;4915211;29;20211;-78
2023/09/10 10:00:56;;;;;;;11.67;7.83;;;;;;;;;;4913374;29;20648;-77
2023/09/10 10:03:22;;;;;;;8.70;7.90;;;;;;;;;;4908965;29;20333;-77
2023/09/10 10:05:49;;;;;;;8.57;7.77;;;;;;;;;;4908657;29;20207;-78
2023/09/10 10:08:16;;;;;;;8.63;7.80;;;;;;;;;;4909335;29;20184;-77
2023/09/10 10:10:48;;;;;;;10.77;7.83;;;;;;;;;;4907467;29;20184;-77
2023/09/10 10:13:17;;;;;;;8.27;7.43;;;;;;;;;;4913806;29;20335;-77
2023/09/10 10:15:44;;;;;;;8.73;7.83;;;;;;;;;;4927220;29;20274;-77
2023/09/10 10:18:10;;;;;;;8.67;7.97;;;;;;;;;;4914573;29;20758;-77
2023/09/10 10:20:37;;;;;;;8.57;7.80;;;;;;;;;;4918346;29;20292;-78
2023/09/10 10:23:03;;;;;;;9.43;8.43;;;;;;;;;;4925005;29;20239;-78
2023/09/10 10:25:30;;;;;;;9.80;8.80;;;;;;;;;;4915109;29;20238;-77
2023/09/10 10:27:58;;;;;;;9.43;8.57;;;;;;;;;;4912428;29;20651;-77
2023/09/10 10:30:26;;;;;;;9.70;8.77;;;;;;;;;;4912288;29;20210;-78
2023/09/10 10:32:52;;;;;;;10.30;9.40;;;;;;;;;;4907522;29;20191;-77
2023/09/10 10:35:19;;;;;;;10.23;9.20;;;;;;;;;;4914969;29;20662;-77
2023/09/10 10:37:47;;;;;;;9.20;8.33;;;;;;;;;;4913781;29;20213;-77
2023/09/10 10:40:17;;;;;;;9.10;8.30;;;;;;;;;;4907421;29;20187;-78
2023/09/10 10:42:50;;;;;;;9.70;8.80;;;;;;;;;;4915355;29;20197;-77
2023/09/10 10:45:17;;;;;;;9.80;8.90;;;;;;;;;;4920941;29;20240;-77
2023/09/10 10:47:44;;;;;;;10.83;9.57;;;;;;;;;;4912145;29;20547;-77
2023/09/10 10:50:11;;;;;;;10.00;8.87;;;;;;;;;;4914840;29;20190;-78
2023/09/10 10:52:56;;;;;;;9.67;8.67;;;;;;;;;;4912547;29;20193;-77
2023/09/10 10:55:22;;;;;;;9.33;8.53;;;;;;;;;;4914983;29;20217;-77
2023/09/10 10:57:49;;;;;;;9.47;8.67;;;;;;;;;;4917070;29;20279;-78
2023/09/10 11:00:15;;;;;;;9.63;8.80;;;;;;;;;;4919563;29;20199;-79
2023/09/10 11:02:41;;;;;;;9.10;8.23;;;;;;;;;;4916877;29;20887;-82
2023/09/10 11:05:08;;;;;;;9.73;8.83;;;;;;;;;;4920933;29;20210;-86
2023/09/10 11:07:35;;;;;;;10.17;8.70;;;;;;;;;;4933865;29;20706;-83
2023/09/10 11:10:21;;;;;;;9.03;8.17;;;;;;;;;;4907807;29;20237;-81
2023/09/10 11:13:05;;;;;;;12.87;8.50;;;;;;;;;;4920928;29;20194;-83
2023/09/10 11:15:31;;;;;;;8.87;7.97;;;;;;;;;;4917925;29;20249;-82
2023/09/10 11:18:16;;;;;;;7.93;7.20;;;;;;;;;;4916575;29;20237;-83
2023/09/10 11:20:50;;;;;;;7.27;6.57;;;;;;;;;;4921933;29;20580;-83
2023/09/10 11:23:16;;;;;;;7.70;7.00;;;;;;;;;;4922239;29;20651;-78
2023/09/10 11:25:42;;;;;;;7.33;6.60;;;;;;;;;;4921291;29;20230;-82
2023/09/10 11:28:27;;;;;;;8.30;6.50;;;;;;;;;;4916257;29;20233;-77
2023/09/10 11:30:53;;;;;;;7.43;6.83;;;;;;;;;;4918864;29;20208;-79
2023/09/10 11:33:33;;;;;;;7.40;6.70;;;;;;;;;;4920361;29;20660;-81
2023/09/10 11:35:59;;;;;;;7.33;6.50;;;;;;;;;;4912352;29;20208;-81
2023/09/10 11:38:28;;;;;;;9.23;7.20;;;;;;;;;;4920237;29;20336;-82
2023/09/10 11:40:54;;;;;;;7.60;6.70;;;;;;;;;;4916772;29;20187;-82
2023/09/10 11:43:20;;;;;;;7.33;6.67;;;;;;;;;;4913842;29;20549;-81
2023/09/10 11:45:47;;;;;;;7.57;6.70;;;;;;;;;;4924285;29;20218;-81
2023/09/10 11:48:13;;;;;;;8.83;6.50;;;;;;;;;;4916458;29;20219;-81
2023/09/10 11:50:39;;;;;;;8.00;6.47;;;;;;;;;;4921291;29;20193;-82
2023/09/10 11:53:05;;;;;;;7.93;7.20;;;;;;;;;;4920837;29;20187;-81
2023/09/10 11:55:32;;;;;;;9.40;6.50;;;;;;;;;;4916872;29;20213;-78
2023/09/10 11:57:58;;;;;;;8.17;6.23;;;;;;;;;;4916880;29;20263;-81
2023/09/10 12:00:25;;;;;;;8.97;6.50;;;;;;;;;;4917038;29;20187;-81
2023/09/10 12:02:52;;;;;;;7.27;6.57;;;;;;;;;;4914029;29;20187;-82
2023/09/10 12:05:18;;;;;;;7.03;6.37;;;;;;;;;;4915901;29;20207;-80
2023/09/10 12:07:45;;;;;;;9.60;6.20;;;;;;;;;;4916490;29;20288;-78
2023/09/10 12:10:14;;;;;;;10.53;5.97;;;;;;;;;;4916165;29;20223;-80
2023/09/10 12:12:42;;;;;;;9.80;6.87;;;;;;;;;;4919414;29;20282;-79
2023/09/10 12:15:08;;;;;;;10.37;6.63;;;;;;;;;;4915571;29;20224;-81
2023/09/10 12:17:34;;;;;;;11.77;7.83;;;;;;;;;;4919041;29;20911;-79
2023/09/10 12:20:01;;;;;;;10.20;6.43;;;;;;;;;;4912469;29;20682;-79
2023/09/10 12:22:27;;;;;;;9.00;6.73;;;;;;;;;;4922562;29;20186;-77
2023/09/10 12:24:53;;;;;;;8.77;6.40;;;;;;;;;;4915460;29;20598;-80
2023/09/10 12:27:19;;;;;;;6.60;5.73;;;;;;;;;;4917933;29;20187;-80
2023/09/10 12:29:46;;;;;;;7.47;6.30;;;;;;;;;;4914546;29;20206;-79
2023/09/10 12:32:12;;;;;;;7.23;5.90;;;;;;;;;;4916079;29;20550;-79
2023/09/10 12:34:38;;;;;;;7.57;5.90;;;;;;;;;;4915133;29;20196;-79
2023/09/10 12:37:04;;;;;;;8.27;5.87;;;;;;;;;;4911533;29;20793;-80
2023/09/10 12:39:33;;;;;;;6.60;5.70;;;;;;;;;;4920400;29;20188;-79
2023/09/10 12:42:02;;;;;;;9.07;4.57;;;;;;;;;;4913930;29;20563;-79
2023/09/10 12:44:29;;;;;;;10.10;5.30;;;;;;;;;;4917540;29;20233;-80
2023/09/10 12:46:56;;;;;;;10.97;5.03;;;;;;;;;;4916030;29;20203;-80
2023/09/10 12:49:22;;;;;;;9.60;4.87;;;;;;;;;;4915004;29;20187;-80
2023/09/10 12:51:48;;;;;;;9.17;4.83;;;;;;;;;;4915268;29;20566;-79
2023/09/10 12:54:15;;;;;;;7.33;4.97;;;;;;;;;;4915398;29;20189;-79
2023/09/10 12:56:42;;;;;;;7.93;5.13;;;;;;;;;;4914652;29;20212;-80
2023/09/10 12:59:09;;;;;;;7.43;4.83;;;;;;;;;;4914996;29;20189;-80
2023/09/10 13:01:38;;;;;;;9.87;5.00;;;;;;;;;;4914692;29;20216;-80
2023/09/10 13:04:05;;;;;;;8.53;4.20;;;;;;;;;;4912481;29;20244;-81
2023/09/10 13:06:31;;;;;;;9.83;4.00;;;;;;;;;;4915318;29;20205;-80
2023/09/10 13:09:01;;;;;;;11.43;4.30;;;;;;;;;;4915297;29;20178;-81
2023/09/10 13:11:27;;;;;;;8.77;3.97;;;;;;;;;;4915561;29;20657;-82
2023/09/10 13:13:53;;;;;;;9.13;4.00;;;;;;;;;;4915367;29;20199;-82
2023/09/10 13:16:19;;;;;;;9.67;4.47;;;;;;;;;;4913896;29;20250;-83
2023/09/10 13:18:45;;;;;;;9.45;4.20;;;;;;;;;;4915116;29;20677;-81
2023/09/10 13:21:11;;;;;;;7.60;3.80;;;;;;;;;;4915331;29;20288;-78
2023/09/10 13:23:37;;;;;;;10.43;4.00;;;;;;;;;;4914989;29;20205;-77
2023/09/10 13:26:04;;;;;;;7.25;3.88;;;;;;;;;;4918487;29;20288;-84
2023/09/10 13:28:30;;;;;;;9.68;3.72;;;;;;;;;;4925821;29;20549;-82
2023/09/10 13:30:56;;;;;;;8.40;4.07;;;;;;;;;;4911177;29;20197;-79
2023/09/10 13:33:23;;;;;;;8.80;4.20;;;;;;;;;;4913526;29;20189;-80
2023/09/10 13:35:49;;;;;;;9.45;3.97;;;;;;;;;;4914363;29;20214;-77
2023/09/10 13:38:15;;;;;;;8.13;3.92;;;;;;;;;;4910346;29;20222;-77
2023/09/10 13:40:42;;;;;;;9.68;3.85;;;;;;;;;;4914278;29;20196;-78
2023/09/10 13:43:08;;;;;;;9.25;3.83;;;;;;;;;;4914249;29;20187;-77
2023/09/10 13:45:34;;;;;;;9.52;3.90;;;;;;;;;;4914771;29;20582;-78
2023/09/10 13:48:00;;;;;;;6.82;3.80;;;;;;;;;;4911989;29;20201;-78
2023/09/10 13:50:26;;;;;;;8.13;3.92;;;;;;;;;;4913393;29;20190;-78
2023/09/10 13:52:52;;;;;;;9.23;3.80;;;;;;;;;;4918176;29;20198;-77
2023/09/10 13:55:18;;;;;;;8.43;3.83;;;;;;;;;;4911258;29;20235;-80
2023/09/10 13:57:44;;;;;;;15.73;4.18;;;;;;;;;;4915561;29;20218;-80
2023/09/10 14:00:11;;;;;;;11.55;4.40;;;;;;;;;;4916514;29;20187;-78
2023/09/10 14:02:37;;;;;;;12.05;4.40;;;;;;;;;;4917850;29;20269;-78
2023/09/10 14:05:06;;;;;;;9.73;4.00;;;;;;;;;;4914016;29;20285;-78
2023/09/10 14:07:32;;;;;;;16.15;4.97;;;;;;;;;;4911147;29;20289;-78
2023/09/10 14:09:59;;;;;;;14.93;4.72;;;;;;;;;;4910106;29;20675;-78
2023/09/10 14:12:25;;;;;;;13.98;4.63;;;;;;;;;;4916593;29;20190;-78
2023/09/10 14:14:51;;;;;;;12.93;4.22;;;;;;;;;;4910615;29;20284;-78
2023/09/10 14:17:18;;;;;;;9.90;3.75;;;;;;;;;;4914013;29;20214;-78
2023/09/10 14:19:44;;;;;;;12.35;4.45;;;;;;;;;;4914033;29;20230;-78
2023/09/10 14:22:10;;;;;;;12.65;3.92;;;;;;;;;;4913809;29;20192;-78
2023/09/10 14:24:36;;;;;;;9.35;4.03;;;;;;;;;;4913579;29;20676;-78
2023/09/10 14:27:02;;;;;;;10.15;4.25;;;;;;;;;;4914095;29;20215;-78
2023/09/10 14:29:29;;;;;;;9.43;4.30;;;;;;;;;;4913835;29;20191;-78